map of SJS home
SJS - Airport
Location
City:  San JosÚ de Chiquitos, Chiquitos, Santa Cruz, Bolivia
Name:San JosÚ de Chiquitos Airport
ICAO:SLJE
IATA:SJS

Details
Type:Airport (Aerodrome, Airfield)
Latitude:17░49'56"S (-17.832221)
Longitude:60░44'35"W (-60.743055)
Elevation:974 ft (297 m)
Variation:13.93░W (WMM2015 magnetic declination)
-0.19░ annual change
Runways:1
Longest:3773 ft (1150 m)

Time
Time Zone:UTC-4
Local Time:

Weather
METAR:SLJE 152200Z 00000KT 9999 BKN020 29/24 Q1010

Related Locations
Nearby:
Farthest:RPUQ: 12372 mi / 19910 km
Vigan, Luzon Island, PH

Find:

   beyond  
but within

Other Information
Maps:
NOTAMs:
Links:
Sources:

  
  • flag of Bolivia
  • flag of Santa Cruz
  

Sectional Chart

Flight Planning
at skyvector.com

Satellite Image

Google Maps Satellite view

 

Copyright © 2004-2018 Karl L. Swartz. All rights reserved.
The Great Circle Mapper name and logo are trademarks of the Great Circle Mapper.
All other trademarks mentioned herein belong to their respective owners.
Please see credits for attibutions and further copyright information.

  Follow gcmap on Facebook Follow gcmap on Twitter Follow gcmap on Google+ GCmap on LinkedIn

hCard Microformat

Geo Microformat